sensor_id;sensor_type;location;lat;lon;timestamp;P1;durP1;ratioP1;P2;durP2;ratioP2
43990;SDS011;29654;50.784;20.604;2023-04-08T00:00:38;10.00;;;8.88;;
43990;SDS011;29654;50.784;20.604;2023-04-08T00:05:41;10.38;;;8.45;;
43990;SDS011;29654;50.784;20.604;2023-04-08T00:10:44;9.10;;;8.20;;
43990;SDS011;29654;50.784;20.604;2023-04-08T00:15:47;10.00;;;8.35;;
43990;SDS011;29654;50.784;20.604;2023-04-08T00:20:51;8.65;;;7.72;;
43990;SDS011;29654;50.784;20.604;2023-04-08T00:25:53;9.10;;;7.80;;
43990;SDS011;29654;50.784;20.604;2023-04-08T00:30:56;9.23;;;8.20;;
43990;SDS011;29654;50.784;20.604;2023-04-08T00:36:01;9.07;;;8.18;;
43990;SDS011;29654;50.784;20.604;2023-04-08T00:41:04;10.55;;;8.57;;
43990;SDS011;29654;50.784;20.604;2023-04-08T00:46:07;10.23;;;8.40;;
43990;SDS011;29654;50.784;20.604;2023-04-08T00:51:12;9.68;;;8.68;;
43990;SDS011;29654;50.784;20.604;2023-04-08T00:56:15;9.73;;;8.05;;
43990;SDS011;29654;50.784;20.604;2023-04-08T01:01:19;9.63;;;8.63;;
43990;SDS011;29654;50.784;20.604;2023-04-08T01:06:31;11.27;;;8.90;;
43990;SDS011;29654;50.784;20.604;2023-04-08T01:11:42;9.68;;;8.65;;
43990;SDS011;29654;50.784;20.604;2023-04-08T01:16:47;10.70;;;8.75;;
43990;SDS011;29654;50.784;20.604;2023-04-08T01:21:51;9.38;;;7.70;;
43990;SDS011;29654;50.784;20.604;2023-04-08T01:26:57;10.68;;;8.02;;
43990;SDS011;29654;50.784;20.604;2023-04-08T01:32:01;8.57;;;7.47;;
43990;SDS011;29654;50.784;20.604;2023-04-08T01:37:05;9.95;;;7.72;;
43990;SDS011;29654;50.784;20.604;2023-04-08T01:42:10;9.65;;;7.25;;
43990;SDS011;29654;50.784;20.604;2023-04-08T01:47:14;7.97;;;7.10;;
43990;SDS011;29654;50.784;20.604;2023-04-08T01:52:19;8.60;;;7.05;;
43990;SDS011;29654;50.784;20.604;2023-04-08T01:57:26;7.47;;;6.72;;
43990;SDS011;29654;50.784;20.604;2023-04-08T02:02:32;8.02;;;6.80;;
43990;SDS011;29654;50.784;20.604;2023-04-08T02:07:37;7.28;;;6.00;;
43990;SDS011;29654;50.784;20.604;2023-04-08T02:12:41;7.25;;;6.43;;
43990;SDS011;29654;50.784;20.604;2023-04-08T02:17:45;7.20;;;6.50;;
43990;SDS011;29654;50.784;20.604;2023-04-08T02:22:55;6.68;;;6.03;;
43990;SDS011;29654;50.784;20.604;2023-04-08T02:28:06;6.53;;;5.75;;
43990;SDS011;29654;50.784;20.604;2023-04-08T02:33:12;7.50;;;6.45;;
43990;SDS011;29654;50.784;20.604;2023-04-08T02:38:15;6.50;;;5.90;;
43990;SDS011;29654;50.784;20.604;2023-04-08T02:43:20;7.47;;;6.75;;
43990;SDS011;29654;50.784;20.604;2023-04-08T02:48:26;7.47;;;6.78;;
43990;SDS011;29654;50.784;20.604;2023-04-08T02:53:28;7.78;;;7.07;;
43990;SDS011;29654;50.784;20.604;2023-04-08T02:58:32;7.90;;;7.10;;
43990;SDS011;29654;50.784;20.604;2023-04-08T03:03:35;8.27;;;7.07;;
43990;SDS011;29654;50.784;20.604;2023-04-08T03:08:37;6.93;;;6.22;;
43990;SDS011;29654;50.784;20.604;2023-04-08T03:13:41;8.68;;;6.65;;
43990;SDS011;29654;50.784;20.604;2023-04-08T03:18:45;6.93;;;6.22;;
43990;SDS011;29654;50.784;20.604;2023-04-08T03:23:50;7.13;;;6.40;;
43990;SDS011;29654;50.784;20.604;2023-04-08T03:28:54;7.28;;;6.53;;
43990;SDS011;29654;50.784;20.604;2023-04-08T03:33:56;7.10;;;6.40;;
43990;SDS011;29654;50.784;20.604;2023-04-08T03:38:58;6.80;;;6.10;;
43990;SDS011;29654;50.784;20.604;2023-04-08T03:44:04;7.05;;;6.35;;
43990;SDS011;29654;50.784;20.604;2023-04-08T03:49:07;7.78;;;7.07;;
43990;SDS011;29654;50.784;20.604;2023-04-08T03:54:09;7.32;;;6.63;;
43990;SDS011;29654;50.784;20.604;2023-04-08T03:59:13;7.60;;;6.90;;
43990;SDS011;29654;50.784;20.604;2023-04-08T04:04:16;7.88;;;7.07;;
43990;SDS011;29654;50.784;20.604;2023-04-08T04:09:18;7.50;;;6.80;;
43990;SDS011;29654;50.784;20.604;2023-04-08T04:14:22;8.50;;;7.50;;
43990;SDS011;29654;50.784;20.604;2023-04-08T04:19:28;7.50;;;6.70;;
43990;SDS011;29654;50.784;20.604;2023-04-08T04:24:31;8.63;;;7.32;;
43990;SDS011;29654;50.784;20.604;2023-04-08T04:29:36;7.75;;;6.95;;
43990;SDS011;29654;50.784;20.604;2023-04-08T04:34:38;9.60;;;7.72;;
43990;SDS011;29654;50.784;20.604;2023-04-08T04:39:41;9.13;;;8.23;;
43990;SDS011;29654;50.784;20.604;2023-04-08T04:44:45;13.77;;;8.43;;
43990;SDS011;29654;50.784;20.604;2023-04-08T04:49:48;9.18;;;8.27;;
43990;SDS011;29654;50.784;20.604;2023-04-08T04:54:51;9.40;;;8.43;;
43990;SDS011;29654;50.784;20.604;2023-04-08T04:59:55;9.82;;;8.82;;
43990;SDS011;29654;50.784;20.604;2023-04-08T05:04:57;9.90;;;8.23;;
43990;SDS011;29654;50.784;20.604;2023-04-08T05:10:00;10.18;;;9.18;;
43990;SDS011;29654;50.784;20.604;2023-04-08T05:15:05;10.60;;;8.82;;
43990;SDS011;29654;50.784;20.604;2023-04-08T05:20:09;9.98;;;8.98;;
43990;SDS011;29654;50.784;20.604;2023-04-08T05:25:11;11.05;;;9.45;;
43990;SDS011;29654;50.784;20.604;2023-04-08T05:30:15;11.27;;;9.48;;
43990;SDS011;29654;50.784;20.604;2023-04-08T05:35:18;10.38;;;9.35;;
43990;SDS011;29654;50.784;20.604;2023-04-08T05:40:21;10.35;;;9.20;;
43990;SDS011;29654;50.784;20.604;2023-04-08T05:45:25;10.18;;;9.13;;
43990;SDS011;29654;50.784;20.604;2023-04-08T05:50:28;10.95;;;9.70;;
43990;SDS011;29654;50.784;20.604;2023-04-08T05:55:31;12.60;;;9.40;;
43990;SDS011;29654;50.784;20.604;2023-04-08T06:00:36;9.73;;;8.77;;
43990;SDS011;29654;50.784;20.604;2023-04-08T06:05:39;9.15;;;8.25;;
43990;SDS011;29654;50.784;20.604;2023-04-08T06:10:47;9.40;;;8.48;;
43990;SDS011;29654;50.784;20.604;2023-04-08T06:15:52;9.50;;;8.40;;
43990;SDS011;29654;50.784;20.604;2023-04-08T06:20:55;9.82;;;8.82;;
43990;SDS011;29654;50.784;20.604;2023-04-08T06:25:58;10.18;;;9.05;;
43990;SDS011;29654;50.784;20.604;2023-04-08T06:31:02;10.07;;;9.02;;
43990;SDS011;29654;50.784;20.604;2023-04-08T06:36:05;10.98;;;9.77;;
43990;SDS011;29654;50.784;20.604;2023-04-08T06:41:08;11.38;;;10.18;;
43990;SDS011;29654;50.784;20.604;2023-04-08T06:46:12;11.30;;;9.85;;
43990;SDS011;29654;50.784;20.604;2023-04-08T06:51:15;11.00;;;9.85;;
43990;SDS011;29654;50.784;20.604;2023-04-08T06:56:17;10.90;;;9.30;;
43990;SDS011;29654;50.784;20.604;2023-04-08T07:01:23;11.38;;;10.25;;
43990;SDS011;29654;50.784;20.604;2023-04-08T07:06:25;9.32;;;8.32;;
43990;SDS011;29654;50.784;20.604;2023-04-08T07:11:28;9.98;;;8.98;;
43990;SDS011;29654;50.784;20.604;2023-04-08T07:16:32;9.43;;;8.50;;
43990;SDS011;29654;50.784;20.604;2023-04-08T07:21:36;9.55;;;8.43;;
43990;SDS011;29654;50.784;20.604;2023-04-08T07:26:38;10.43;;;9.40;;
43990;SDS011;29654;50.784;20.604;2023-04-08T07:31:43;12.05;;;10.27;;
43990;SDS011;29654;50.784;20.604;2023-04-08T07:36:45;12.68;;;10.52;;
43990;SDS011;29654;50.784;20.604;2023-04-08T07:41:48;10.90;;;9.88;;
43990;SDS011;29654;50.784;20.604;2023-04-08T07:46:52;12.98;;;10.80;;
43990;SDS011;29654;50.784;20.604;2023-04-08T07:51:54;11.60;;;9.55;;
43990;SDS011;29654;50.784;20.604;2023-04-08T07:56:57;10.48;;;9.40;;
43990;SDS011;29654;50.784;20.604;2023-04-08T08:02:02;11.50;;;10.40;;
43990;SDS011;29654;50.784;20.604;2023-04-08T08:07:05;11.57;;;10.48;;
43990;SDS011;29654;50.784;20.604;2023-04-08T08:12:09;11.75;;;10.10;;
43990;SDS011;29654;50.784;20.604;2023-04-08T08:17:14;10.80;;;9.80;;
43990;SDS011;29654;50.784;20.604;2023-04-08T08:22:18;11.68;;;10.25;;
43990;SDS011;29654;50.784;20.604;2023-04-08T08:27:21;11.57;;;10.40;;
43990;SDS011;29654;50.784;20.604;2023-04-08T08:32:25;12.77;;;11.57;;
43990;SDS011;29654;50.784;20.604;2023-04-08T08:37:28;11.75;;;10.55;;
43990;SDS011;29654;50.784;20.604;2023-04-08T08:42:30;11.35;;;10.25;;
43990;SDS011;29654;50.784;20.604;2023-04-08T08:47:34;12.57;;;11.27;;
43990;SDS011;29654;50.784;20.604;2023-04-08T08:52:37;13.55;;;11.75;;
43990;SDS011;29654;50.784;20.604;2023-04-08T08:57:40;13.02;;;11.63;;
43990;SDS011;29654;50.784;20.604;2023-04-08T09:02:44;13.05;;;11.48;;
43990;SDS011;29654;50.784;20.604;2023-04-08T09:07:47;11.88;;;10.70;;
43990;SDS011;29654;50.784;20.604;2023-04-08T09:17:57;12.23;;;11.02;;
43990;SDS011;29654;50.784;20.604;2023-04-08T09:23:00;13.88;;;11.43;;
43990;SDS011;29654;50.784;20.604;2023-04-08T09:28:03;12.10;;;10.82;;
43990;SDS011;29654;50.784;20.604;2023-04-08T09:33:07;11.82;;;10.55;;
43990;SDS011;29654;50.784;20.604;2023-04-08T09:38:11;10.13;;;9.20;;
43990;SDS011;29654;50.784;20.604;2023-04-08T09:43:13;11.15;;;10.05;;
43990;SDS011;29654;50.784;20.604;2023-04-08T09:48:23;11.38;;;10.27;;
43990;SDS011;29654;50.784;20.604;2023-04-08T09:53:35;11.35;;;10.20;;
43990;SDS011;29654;50.784;20.604;2023-04-08T09:58:44;11.43;;;10.40;;
43990;SDS011;29654;50.784;20.604;2023-04-08T10:03:55;10.15;;;9.25;;
43990;SDS011;29654;50.784;20.604;2023-04-08T10:08:59;11.02;;;9.90;;
43990;SDS011;29654;50.784;20.604;2023-04-08T10:14:03;10.50;;;9.40;;
43990;SDS011;29654;50.784;20.604;2023-04-08T10:19:34;9.63;;;8.50;;
43990;SDS011;29654;50.784;20.604;2023-04-08T10:24:42;10.25;;;9.35;;
43990;SDS011;29654;50.784;20.604;2023-04-08T10:30:38;9.80;;;8.80;;
43990;SDS011;29654;50.784;20.604;2023-04-08T10:35:46;10.57;;;8.90;;
43990;SDS011;29654;50.784;20.604;2023-04-08T10:40:50;9.63;;;8.73;;
43990;SDS011;29654;50.784;20.604;2023-04-08T10:45:55;9.95;;;8.35;;
43990;SDS011;29654;50.784;20.604;2023-04-08T10:50:59;10.00;;;9.00;;
43990;SDS011;29654;50.784;20.604;2023-04-08T10:56:03;8.88;;;8.07;;
43990;SDS011;29654;50.784;20.604;2023-04-08T11:01:08;9.57;;;8.73;;
43990;SDS011;29654;50.784;20.604;2023-04-08T11:06:12;9.93;;;8.77;;
43990;SDS011;29654;50.784;20.604;2023-04-08T11:11:15;9.77;;;8.85;;
43990;SDS011;29654;50.784;20.604;2023-04-08T11:16:17;9.63;;;8.82;;
43990;SDS011;29654;50.784;20.604;2023-04-08T11:21:23;9.18;;;8.27;;
43990;SDS011;29654;50.784;20.604;2023-04-08T11:26:28;9.05;;;8.15;;
43990;SDS011;29654;50.784;20.604;2023-04-08T11:31:32;8.55;;;7.75;;
43990;SDS011;29654;50.784;20.604;2023-04-08T11:36:38;8.75;;;7.95;;
43990;SDS011;29654;50.784;20.604;2023-04-08T11:41:41;8.35;;;7.65;;
43990;SDS011;29654;50.784;20.604;2023-04-08T11:46:50;7.53;;;6.93;;
43990;SDS011;29654;50.784;20.604;2023-04-08T11:51:58;8.52;;;7.82;;
43990;SDS011;29654;50.784;20.604;2023-04-08T11:57:01;7.78;;;7.18;;
43990;SDS011;29654;50.784;20.604;2023-04-08T12:02:04;7.95;;;7.25;;
43990;SDS011;29654;50.784;20.604;2023-04-08T12:07:08;7.18;;;6.57;;
43990;SDS011;29654;50.784;20.604;2023-04-08T12:12:11;7.53;;;6.90;;
43990;SDS011;29654;50.784;20.604;2023-04-08T12:17:13;8.50;;;7.70;;
43990;SDS011;29654;50.784;20.604;2023-04-08T12:22:17;6.65;;;6.10;;
43990;SDS011;29654;50.784;20.604;2023-04-08T12:27:20;7.88;;;7.18;;
43990;SDS011;29654;50.784;20.604;2023-04-08T12:32:23;8.13;;;7.38;;
43990;SDS011;29654;50.784;20.604;2023-04-08T12:37:27;8.30;;;7.60;;
43990;SDS011;29654;50.784;20.604;2023-04-08T12:42:29;7.70;;;7.10;;
43990;SDS011;29654;50.784;20.604;2023-04-08T12:47:32;7.60;;;6.97;;
43990;SDS011;29654;50.784;20.604;2023-04-08T12:52:36;6.80;;;6.20;;
43990;SDS011;29654;50.784;20.604;2023-04-08T12:57:39;6.55;;;5.95;;
43990;SDS011;29654;50.784;20.604;2023-04-08T13:02:42;7.13;;;6.50;;
43990;SDS011;29654;50.784;20.604;2023-04-08T13:07:46;5.90;;;5.40;;
43990;SDS011;29654;50.784;20.604;2023-04-08T13:12:49;5.82;;;5.30;;
43990;SDS011;29654;50.784;20.604;2023-04-08T13:17:52;6.15;;;5.65;;
43990;SDS011;29654;50.784;20.604;2023-04-08T13:22:56;6.72;;;6.20;;
43990;SDS011;29654;50.784;20.604;2023-04-08T13:27:59;7.03;;;6.43;;
43990;SDS011;29654;50.784;20.604;2023-04-08T13:33:02;7.43;;;6.82;;
43990;SDS011;29654;50.784;20.604;2023-04-08T13:38:07;6.68;;;6.07;;
43990;SDS011;29654;50.784;20.604;2023-04-08T13:43:09;8.13;;;7.32;;
43990;SDS011;29654;50.784;20.604;2023-04-08T13:48:12;9.27;;;8.45;;
43990;SDS011;29654;50.784;20.604;2023-04-08T13:53:16;8.73;;;8.00;;
43990;SDS011;29654;50.784;20.604;2023-04-08T13:58:18;8.65;;;7.85;;
43990;SDS011;29654;50.784;20.604;2023-04-08T14:03:22;9.30;;;8.40;;
43990;SDS011;29654;50.784;20.604;2023-04-08T14:08:27;8.90;;;8.10;;
43990;SDS011;29654;50.784;20.604;2023-04-08T14:13:29;6.20;;;5.70;;
43990;SDS011;29654;50.784;20.604;2023-04-08T14:18:32;5.35;;;4.82;;
43990;SDS011;29654;50.784;20.604;2023-04-08T14:23:36;5.82;;;5.32;;
43990;SDS011;29654;50.784;20.604;2023-04-08T14:28:39;4.75;;;4.30;;
43990;SDS011;29654;50.784;20.604;2023-04-08T14:33:41;4.97;;;4.57;;
43990;SDS011;29654;50.784;20.604;2023-04-08T14:38:46;5.47;;;4.97;;
43990;SDS011;29654;50.784;20.604;2023-04-08T14:43:48;5.65;;;5.15;;
43990;SDS011;29654;50.784;20.604;2023-04-08T14:48:50;5.70;;;5.20;;
43990;SDS011;29654;50.784;20.604;2023-04-08T14:53:54;29.20;;;19.30;;
43990;SDS011;29654;50.784;20.604;2023-04-08T14:58:57;11.48;;;9.68;;
43990;SDS011;29654;50.784;20.604;2023-04-08T15:03:59;9.23;;;7.82;;
43990;SDS011;29654;50.784;20.604;2023-04-08T15:09:03;9.45;;;8.13;;
43990;SDS011;29654;50.784;20.604;2023-04-08T15:14:06;9.20;;;8.05;;
43990;SDS011;29654;50.784;20.604;2023-04-08T15:19:08;8.25;;;7.40;;
43990;SDS011;29654;50.784;20.604;2023-04-08T15:24:12;9.43;;;8.45;;
43990;SDS011;29654;50.784;20.604;2023-04-08T15:29:15;10.57;;;9.57;;
43990;SDS011;29654;50.784;20.604;2023-04-08T15:34:17;10.45;;;9.45;;
43990;SDS011;29654;50.784;20.604;2023-04-08T15:39:21;19.88;;;14.82;;
43990;SDS011;29654;50.784;20.604;2023-04-08T15:44:24;24.33;;;20.15;;
43990;SDS011;29654;50.784;20.604;2023-04-08T15:49:26;22.48;;;20.10;;
43990;SDS011;29654;50.784;20.604;2023-04-08T15:54:32;17.80;;;16.02;;
43990;SDS011;29654;50.784;20.604;2023-04-08T15:59:34;12.30;;;11.05;;
43990;SDS011;29654;50.784;20.604;2023-04-08T16:04:37;12.60;;;10.77;;
43990;SDS011;29654;50.784;20.604;2023-04-08T16:09:41;14.75;;;12.35;;
43990;SDS011;29654;50.784;20.604;2023-04-08T16:14:44;13.75;;;12.32;;
43990;SDS011;29654;50.784;20.604;2023-04-08T16:19:48;14.52;;;13.05;;
43990;SDS011;29654;50.784;20.604;2023-04-08T16:24:52;14.70;;;13.23;;
43990;SDS011;29654;50.784;20.604;2023-04-08T16:29:55;26.83;;;24.05;;
43990;SDS011;29654;50.784;20.604;2023-04-08T16:34:57;31.67;;;28.27;;
43990;SDS011;29654;50.784;20.604;2023-04-08T16:40:01;25.27;;;22.30;;
43990;SDS011;29654;50.784;20.604;2023-04-08T16:45:05;21.58;;;19.27;;
43990;SDS011;29654;50.784;20.604;2023-04-08T16:50:09;23.38;;;20.52;;
43990;SDS011;29654;50.784;20.604;2023-04-08T16:55:13;21.92;;;18.42;;
43990;SDS011;29654;50.784;20.604;2023-04-08T17:00:16;22.17;;;18.35;;
43990;SDS011;29654;50.784;20.604;2023-04-08T17:05:19;22.05;;;19.67;;
43990;SDS011;29654;50.784;20.604;2023-04-08T17:10:24;24.95;;;21.45;;
43990;SDS011;29654;50.784;20.604;2023-04-08T17:15:26;23.20;;;20.70;;
43990;SDS011;29654;50.784;20.604;2023-04-08T17:20:29;28.55;;;24.15;;
43990;SDS011;29654;50.784;20.604;2023-04-08T17:25:33;24.73;;;21.45;;
43990;SDS011;29654;50.784;20.604;2023-04-08T17:30:35;24.23;;;20.20;;
43990;SDS011;29654;50.784;20.604;2023-04-08T17:35:38;27.67;;;22.73;;
43990;SDS011;29654;50.784;20.604;2023-04-08T17:40:43;21.35;;;18.55;;
43990;SDS011;29654;50.784;20.604;2023-04-08T17:45:45;24.27;;;19.20;;
43990;SDS011;29654;50.784;20.604;2023-04-08T17:50:49;24.30;;;19.42;;
43990;SDS011;29654;50.784;20.604;2023-04-08T17:56:04;18.90;;;16.30;;
43990;SDS011;29654;50.784;20.604;2023-04-08T18:01:07;18.83;;;16.83;;
43990;SDS011;29654;50.784;20.604;2023-04-08T18:06:10;23.48;;;18.33;;
43990;SDS011;29654;50.784;20.604;2023-04-08T18:11:14;20.88;;;18.45;;
43990;SDS011;29654;50.784;20.604;2023-04-08T18:16:17;23.63;;;18.77;;
43990;SDS011;29654;50.784;20.604;2023-04-08T18:21:20;23.60;;;19.52;;
43990;SDS011;29654;50.784;20.604;2023-04-08T18:26:24;23.17;;;19.05;;
43990;SDS011;29654;50.784;20.604;2023-04-08T18:31:27;21.60;;;18.95;;
43990;SDS011;29654;50.784;20.604;2023-04-08T18:36:30;22.80;;;18.35;;
43990;SDS011;29654;50.784;20.604;2023-04-08T18:41:33;27.65;;;24.40;;
43990;SDS011;29654;50.784;20.604;2023-04-08T18:46:36;66.78;;;51.03;;
43990;SDS011;29654;50.784;20.604;2023-04-08T18:51:39;52.53;;;39.75;;
43990;SDS011;29654;50.784;20.604;2023-04-08T18:56:43;53.67;;;41.88;;
43990;SDS011;29654;50.784;20.604;2023-04-08T19:01:45;31.90;;;25.02;;
43990;SDS011;29654;50.784;20.604;2023-04-08T19:06:48;37.05;;;29.95;;
43990;SDS011;29654;50.784;20.604;2023-04-08T19:11:52;41.28;;;33.30;;
43990;SDS011;29654;50.784;20.604;2023-04-08T19:16:54;43.13;;;33.97;;
43990;SDS011;29654;50.784;20.604;2023-04-08T19:21:57;38.08;;;31.73;;
43990;SDS011;29654;50.784;20.604;2023-04-08T19:27:03;34.70;;;28.35;;
43990;SDS011;29654;50.784;20.604;2023-04-08T19:32:06;29.05;;;25.13;;
43990;SDS011;29654;50.784;20.604;2023-04-08T19:37:09;30.27;;;25.02;;
43990;SDS011;29654;50.784;20.604;2023-04-08T19:42:12;30.73;;;25.48;;
43990;SDS011;29654;50.784;20.604;2023-04-08T19:47:15;34.75;;;27.90;;
43990;SDS011;29654;50.784;20.604;2023-04-08T19:52:18;35.05;;;29.90;;
43990;SDS011;29654;50.784;20.604;2023-04-08T19:57:23;52.33;;;46.67;;
43990;SDS011;29654;50.784;20.604;2023-04-08T20:02:26;54.45;;;43.85;;
43990;SDS011;29654;50.784;20.604;2023-04-08T20:07:28;38.92;;;33.30;;
43990;SDS011;29654;50.784;20.604;2023-04-08T20:12:32;37.85;;;32.85;;
43990;SDS011;29654;50.784;20.604;2023-04-08T20:17:35;38.65;;;31.55;;
43990;SDS011;29654;50.784;20.604;2023-04-08T20:22:37;40.78;;;35.00;;
43990;SDS011;29654;50.784;20.604;2023-04-08T20:27:42;44.13;;;35.72;;
43990;SDS011;29654;50.784;20.604;2023-04-08T20:32:44;35.15;;;29.42;;
43990;SDS011;29654;50.784;20.604;2023-04-08T20:37:47;32.10;;;28.15;;
43990;SDS011;29654;50.784;20.604;2023-04-08T20:42:53;39.55;;;32.55;;
43990;SDS011;29654;50.784;20.604;2023-04-08T20:47:55;42.22;;;34.78;;
43990;SDS011;29654;50.784;20.604;2023-04-08T20:52:59;42.10;;;33.88;;
43990;SDS011;29654;50.784;20.604;2023-04-08T20:58:04;40.13;;;34.35;;
43990;SDS011;29654;50.784;20.604;2023-04-08T21:03:07;37.47;;;29.75;;
43990;SDS011;29654;50.784;20.604;2023-04-08T21:08:09;36.60;;;29.95;;
43990;SDS011;29654;50.784;20.604;2023-04-08T21:13:13;45.85;;;35.25;;
43990;SDS011;29654;50.784;20.604;2023-04-08T21:18:16;53.95;;;36.35;;
43990;SDS011;29654;50.784;20.604;2023-04-08T21:23:18;37.13;;;30.85;;
43990;SDS011;29654;50.784;20.604;2023-04-08T21:28:23;33.42;;;28.40;;
43990;SDS011;29654;50.784;20.604;2023-04-08T21:33:25;31.65;;;26.20;;
43990;SDS011;29654;50.784;20.604;2023-04-08T21:38:28;29.02;;;24.90;;
43990;SDS011;29654;50.784;20.604;2023-04-08T21:43:32;30.90;;;27.52;;
43990;SDS011;29654;50.784;20.604;2023-04-08T21:48:35;32.47;;;26.10;;
43990;SDS011;29654;50.784;20.604;2023-04-08T21:53:37;33.80;;;28.67;;
43990;SDS011;29654;50.784;20.604;2023-04-08T21:58:41;59.78;;;40.83;;
43990;SDS011;29654;50.784;20.604;2023-04-08T22:03:44;56.70;;;41.63;;
43990;SDS011;29654;50.784;20.604;2023-04-08T22:08:46;45.40;;;35.30;;
43990;SDS011;29654;50.784;20.604;2023-04-08T22:13:51;41.60;;;32.20;;
43990;SDS011;29654;50.784;20.604;2023-04-08T22:18:54;38.88;;;31.65;;
43990;SDS011;29654;50.784;20.604;2023-04-08T22:23:56;41.65;;;32.70;;
43990;SDS011;29654;50.784;20.604;2023-04-08T22:29:00;36.58;;;30.27;;
43990;SDS011;29654;50.784;20.604;2023-04-08T22:34:03;34.00;;;28.23;;
43990;SDS011;29654;50.784;20.604;2023-04-08T22:39:05;37.22;;;29.83;;
43990;SDS011;29654;50.784;20.604;2023-04-08T22:44:09;54.75;;;38.20;;
43990;SDS011;29654;50.784;20.604;2023-04-08T22:49:12;46.70;;;35.78;;
43990;SDS011;29654;50.784;20.604;2023-04-08T22:54:14;45.67;;;34.40;;
43990;SDS011;29654;50.784;20.604;2023-04-08T22:59:18;44.45;;;34.20;;
43990;SDS011;29654;50.784;20.604;2023-04-08T23:04:21;41.38;;;33.40;;
43990;SDS011;29654;50.784;20.604;2023-04-08T23:09:23;45.25;;;34.40;;
43990;SDS011;29654;50.784;20.604;2023-04-08T23:14:27;39.15;;;32.53;;
43990;SDS011;29654;50.784;20.604;2023-04-08T23:19:30;38.40;;;31.17;;
43990;SDS011;29654;50.784;20.604;2023-04-08T23:24:32;45.55;;;36.47;;
43990;SDS011;29654;50.784;20.604;2023-04-08T23:29:36;48.33;;;36.80;;
43990;SDS011;29654;50.784;20.604;2023-04-08T23:34:39;43.17;;;35.15;;
43990;SDS011;29654;50.784;20.604;2023-04-08T23:39:41;48.40;;;35.85;;
43990;SDS011;29654;50.784;20.604;2023-04-08T23:44:46;47.13;;;34.78;;
43990;SDS011;29654;50.784;20.604;2023-04-08T23:49:49;44.85;;;36.20;;
43990;SDS011;29654;50.784;20.604;2023-04-08T23:54:52;41.42;;;33.10;;
43990;SDS011;29654;50.784;20.604;2023-04-08T23:59:55;43.05;;;35.03;;
